createdAt,value
2023-03-13T00:00:33.449Z,15.25
2023-03-13T00:03:19.447Z,19.33
2023-03-13T00:06:05.548Z,20.35
2023-03-13T00:08:51.075Z,23.98
2023-03-13T00:11:36.581Z,25.98
2023-03-13T00:14:21.839Z,32.90
2023-03-13T00:17:07.214Z,36.47
2023-03-13T00:19:52.977Z,28.02
2023-03-13T00:22:38.335Z,34.55
2023-03-13T00:25:23.887Z,34.67
2023-03-13T00:28:09.623Z,35.15
2023-03-13T00:31:09.712Z,31.65
2023-03-13T00:33:59.127Z,36.10
2023-03-13T00:36:44.429Z,28.60
2023-03-13T00:39:30.040Z,31.98
2023-03-13T00:42:15.582Z,28.88
2023-03-13T00:45:01.273Z,37.38
2023-03-13T00:47:46.884Z,27.33
2023-03-13T00:50:32.734Z,26.83
2023-03-13T00:53:18.507Z,31.73
2023-03-13T00:56:06.112Z,30.15
2023-03-13T01:00:15.579Z,31.80
2023-03-13T01:03:01.334Z,30.85
2023-03-13T01:05:59.358Z,33.33
2023-03-13T01:08:45.465Z,31.38
2023-03-13T01:11:34.652Z,36.75
2023-03-13T01:14:20.827Z,31.10
2023-03-13T01:17:06.794Z,18.17
2023-03-13T01:19:56.195Z,28.23
2023-03-13T01:22:41.746Z,21.45
2023-03-13T01:25:27.511Z,18.05
2023-03-13T01:28:13.067Z,25.27
2023-03-13T01:30:59.902Z,22.30
2023-03-13T01:33:46.725Z,28.95
2023-03-13T01:36:33.090Z,18.85
2023-03-13T01:39:18.749Z,17.83
2023-03-13T01:42:05.436Z,17.98
2023-03-13T01:44:57.052Z,18.95
2023-03-13T01:47:43.111Z,19.80
2023-03-13T01:50:28.649Z,22.73
2023-03-13T01:53:14.456Z,17.98
2023-03-13T01:56:05.372Z,19.08
2023-03-13T01:58:52.996Z,14.60
2023-03-13T02:01:39.260Z,14.65
2023-03-13T02:04:26.769Z,9.30
2023-03-13T02:07:17.311Z,11.07
2023-03-13T02:10:02.971Z,11.93
2023-03-13T02:12:49.588Z,11.38
2023-03-13T02:15:35.182Z,15.55
2023-03-13T02:18:20.513Z,15.70
2023-03-13T02:21:14.219Z,9.90
2023-03-13T02:24:09.644Z,11.20
2023-03-13T02:26:55.511Z,8.32
2023-03-13T02:29:41.710Z,6.95
2023-03-13T02:32:32.852Z,14.50
2023-03-13T02:35:21.126Z,11.07
2023-03-13T02:38:10.434Z,9.27
2023-03-13T02:40:57.446Z,11.23
2023-03-13T02:43:42.949Z,7.32
2023-03-13T02:46:28.601Z,14.45
2023-03-13T02:49:21.990Z,13.77
2023-03-13T02:52:20.690Z,9.90
2023-03-13T02:55:10.868Z,11.88
2023-03-13T02:57:56.445Z,12.32
2023-03-13T03:00:41.933Z,11.63
2023-03-13T03:03:27.717Z,13.50
2023-03-13T03:06:13.093Z,11.63
2023-03-13T03:08:58.705Z,11.77
2023-03-13T03:11:44.429Z,16.40
2023-03-13T03:14:29.971Z,14.93
2023-03-13T03:17:15.370Z,11.25
2023-03-13T03:20:00.934Z,15.02
2023-03-13T03:22:46.335Z,12.73
2023-03-13T03:25:31.760Z,11.57
2023-03-13T03:28:17.428Z,16.17
2023-03-13T03:31:10.592Z,5.20
2023-03-13T03:36:42.637Z,5.63
2023-03-13T03:39:28.463Z,5.88
2023-03-13T03:42:13.830Z,7.82
2023-03-13T03:44:59.377Z,4.18
2023-03-13T03:47:45.007Z,4.10
2023-03-13T03:50:30.174Z,2.92
2023-03-13T03:53:15.890Z,5.35
2023-03-13T03:56:02.033Z,4.07
2023-03-13T03:58:47.814Z,7.55
2023-03-13T04:01:33.284Z,3.80
2023-03-13T04:04:18.648Z,4.18
2023-03-13T04:07:04.401Z,5.50
2023-03-13T04:09:50.215Z,2.67
2023-03-13T04:12:35.863Z,6.97
2023-03-13T04:15:21.489Z,6.50
2023-03-13T04:18:07.086Z,4.80
2023-03-13T04:21:04.247Z,5.95
2023-03-13T04:23:49.572Z,12.35
2023-03-13T04:26:35.166Z,7.18
2023-03-13T04:29:21.050Z,7.45
2023-03-13T04:32:07.076Z,9.85
2023-03-13T04:34:53.019Z,5.95
2023-03-13T04:37:38.558Z,8.52
2023-03-13T04:40:24.148Z,6.75
2023-03-13T04:43:09.951Z,11.02
2023-03-13T04:45:55.486Z,6.95
2023-03-13T04:48:41.390Z,8.88
2023-03-13T04:51:27.088Z,14.52
2023-03-13T04:54:12.797Z,11.60
2023-03-13T04:56:58.341Z,12.27
2023-03-13T04:59:44.292Z,9.50
2023-03-13T05:02:29.961Z,14.77
2023-03-13T05:05:15.605Z,13.40
2023-03-13T05:08:01.459Z,11.50
2023-03-13T05:10:47.521Z,9.07
2023-03-13T05:13:33.354Z,12.95
2023-03-13T05:16:19.243Z,15.05
2023-03-13T05:19:04.667Z,22.20
2023-03-13T05:21:50.296Z,13.70
2023-03-13T05:24:35.653Z,17.15
2023-03-13T05:27:21.223Z,14.98
2023-03-13T05:30:07.872Z,12.48
2023-03-13T05:32:53.272Z,15.00
2023-03-13T05:35:39.305Z,13.40
2023-03-13T05:38:25.582Z,15.02
2023-03-13T05:41:11.459Z,16.17
2023-03-13T05:43:57.364Z,15.57
2023-03-13T05:46:42.936Z,18.67
2023-03-13T05:49:28.546Z,24.55
2023-03-13T05:52:15.553Z,16.83
2023-03-13T05:55:01.029Z,26.90
2023-03-13T05:57:47.929Z,21.25
2023-03-13T06:00:33.847Z,24.13
2023-03-13T06:03:19.247Z,19.77
2023-03-13T06:06:05.657Z,21.17
2023-03-13T06:08:53.676Z,19.75
2023-03-13T06:11:39.414Z,19.33
2023-03-13T06:14:24.902Z,20.15
2023-03-13T06:17:10.165Z,17.33
2023-03-13T06:19:55.935Z,19.38
2023-03-13T06:22:42.507Z,14.35
2023-03-13T06:25:28.293Z,24.50
2023-03-13T06:28:13.734Z,20.02
2023-03-13T06:31:04.054Z,22.40
2023-03-13T06:33:53.564Z,19.73
2023-03-13T06:36:38.854Z,29.70
2023-03-13T06:39:24.434Z,25.77
2023-03-13T06:42:09.884Z,28.65
2023-03-13T06:44:55.450Z,30.50
2023-03-13T06:47:41.290Z,30.05
2023-03-13T06:50:27.131Z,24.92
2023-03-13T06:53:20.484Z,34.05
2023-03-13T06:56:07.755Z,27.38
2023-03-13T06:58:54.047Z,31.63
2023-03-13T07:01:39.625Z,28.00
2023-03-13T07:04:25.124Z,24.48
2023-03-13T07:07:22.140Z,29.88
2023-03-13T07:10:15.132Z,29.33
2023-03-13T07:13:00.616Z,32.88
2023-03-13T07:15:46.273Z,25.23
2023-03-13T07:18:33.148Z,33.38
2023-03-13T07:21:18.673Z,37.70
2023-03-13T07:24:04.575Z,34.10
2023-03-13T07:27:04.183Z,28.10
2023-03-13T07:29:51.770Z,40.20
2023-03-13T07:32:37.497Z,34.85
2023-03-13T07:35:23.070Z,33.35
2023-03-13T07:38:08.237Z,40.33
2023-03-13T07:40:55.237Z,25.92
2023-03-13T07:43:41.045Z,29.52
2023-03-13T07:46:26.560Z,34.30
2023-03-13T07:49:12.336Z,37.53
2023-03-13T07:51:58.251Z,33.75
2023-03-13T07:54:44.078Z,39.92
2023-03-13T07:57:29.825Z,32.33
2023-03-13T08:00:17.556Z,29.48
2023-03-13T08:03:05.233Z,43.15
2023-03-13T08:06:06.961Z,43.47
2023-03-13T08:08:53.732Z,39.03
2023-03-13T08:11:44.598Z,44.95
2023-03-13T08:14:30.009Z,33.47
2023-03-13T08:17:15.502Z,36.28
2023-03-13T08:20:01.000Z,50.22
2023-03-13T08:22:46.885Z,38.30
2023-03-13T08:25:33.018Z,34.90
2023-03-13T08:28:18.363Z,39.83
2023-03-13T08:31:12.238Z,34.92
2023-03-13T08:33:59.357Z,37.35
2023-03-13T08:36:45.369Z,33.80
2023-03-13T08:39:30.825Z,38.03
2023-03-13T08:42:16.421Z,31.10
2023-03-13T08:45:01.838Z,42.25
2023-03-13T08:47:47.480Z,26.58
2023-03-13T08:50:33.183Z,39.70
2023-03-13T08:53:18.696Z,31.85
2023-03-13T08:56:04.732Z,39.88
2023-03-13T08:58:52.331Z,33.22
2023-03-13T09:01:37.868Z,45.13
2023-03-13T09:04:23.149Z,40.17
2023-03-13T09:07:08.497Z,34.78
2023-03-13T09:09:54.027Z,40.38
2023-03-13T09:12:39.689Z,50.60
2023-03-13T09:15:25.803Z,36.53
2023-03-13T09:18:11.644Z,39.53
2023-03-13T09:20:57.700Z,34.75
2023-03-13T09:23:44.592Z,34.00
2023-03-13T09:26:30.431Z,42.53
2023-03-13T09:29:16.601Z,32.90
2023-03-13T09:32:03.902Z,36.72
2023-03-13T09:34:49.407Z,42.78
2023-03-13T09:37:34.988Z,32.28
2023-03-13T09:40:23.790Z,45.88
2023-03-13T09:43:22.527Z,39.47
2023-03-13T09:46:15.034Z,31.05
2023-03-13T09:49:04.278Z,38.03
2023-03-13T09:51:58.726Z,39.35
2023-03-13T09:55:02.793Z,39.08
2023-03-13T09:57:59.892Z,38.00
2023-03-13T10:00:51.920Z,33.95
2023-03-13T10:03:46.034Z,32.83
2023-03-13T10:06:36.678Z,41.88
2023-03-13T10:09:34.001Z,39.30
2023-03-13T10:12:23.078Z,34.67
2023-03-13T10:15:18.063Z,39.40
2023-03-13T10:18:21.778Z,40.72
2023-03-13T10:21:26.085Z,40.47
2023-03-13T10:24:36.718Z,44.08
2023-03-13T10:27:22.378Z,38.17
2023-03-13T10:30:25.072Z,38.85
2023-03-13T10:33:19.323Z,38.58
2023-03-13T10:36:08.863Z,37.33
2023-03-13T10:38:55.303Z,42.42
2023-03-13T10:41:40.867Z,36.20
2023-03-13T10:44:33.135Z,33.30
2023-03-13T10:47:19.867Z,33.67
2023-03-13T10:50:05.614Z,34.70
2023-03-13T10:52:51.457Z,34.17
2023-03-13T10:55:44.449Z,42.15
2023-03-13T10:58:45.007Z,38.35
2023-03-13T11:01:43.932Z,28.98
2023-03-13T11:04:35.589Z,30.25
2023-03-13T11:07:46.268Z,38.65
2023-03-13T11:10:32.634Z,37.33
2023-03-13T11:13:36.452Z,41.67
2023-03-13T11:16:26.658Z,40.05
2023-03-13T11:19:35.764Z,42.38
2023-03-13T11:22:54.338Z,34.78
2023-03-13T11:25:45.817Z,27.50
2023-03-13T11:28:34.103Z,28.38
2023-03-13T11:31:28.899Z,37.20
2023-03-13T11:34:33.233Z,44.80
2023-03-13T11:37:21.609Z,35.70
2023-03-13T11:40:40.805Z,35.75
2023-03-13T11:43:52.261Z,30.35
2023-03-13T11:47:03.518Z,43.15
2023-03-13T11:49:55.027Z,49.08
2023-03-13T11:53:16.443Z,32.45
2023-03-13T11:56:10.301Z,41.08
2023-03-13T11:59:23.782Z,33.85
2023-03-13T12:02:38.718Z,33.30
2023-03-13T12:05:26.736Z,40.63
2023-03-13T12:08:21.366Z,35.33
2023-03-13T12:11:21.187Z,37.58
2023-03-13T12:14:22.606Z,28.23
2023-03-13T12:17:17.477Z,27.95
2023-03-13T12:20:09.894Z,23.92
2023-03-13T12:23:01.515Z,28.13
2023-03-13T12:26:03.155Z,31.75
2023-03-13T12:29:16.690Z,38.58
2023-03-13T12:32:22.780Z,33.15
2023-03-13T12:35:18.060Z,33.78
2023-03-13T12:38:26.443Z,38.55
2023-03-13T12:41:53.827Z,31.77
2023-03-13T12:44:40.163Z,40.17
2023-03-13T12:47:33.088Z,35.10
2023-03-13T12:50:37.776Z,38.30
2023-03-13T12:53:50.594Z,30.35
2023-03-13T12:57:00.940Z,32.47
2023-03-13T12:59:52.636Z,35.05
2023-03-13T13:02:38.680Z,37.22
2023-03-13T13:05:24.129Z,45.22
2023-03-13T13:08:25.175Z,44.95
2023-03-13T13:11:35.663Z,36.70
2023-03-13T13:14:21.093Z,33.25
2023-03-13T13:17:22.011Z,32.22
2023-03-13T13:20:33.595Z,32.13
2023-03-13T13:23:36.941Z,38.10
2023-03-13T13:26:33.806Z,35.60
2023-03-13T13:29:22.057Z,39.08
2023-03-13T13:32:15.278Z,36.95
2023-03-13T13:35:02.469Z,34.20
2023-03-13T13:37:49.609Z,31.98
2023-03-13T13:40:35.627Z,32.42
2023-03-13T13:43:25.104Z,34.15
2023-03-13T13:46:30.476Z,29.33
2023-03-13T13:49:23.076Z,36.88
2023-03-13T13:52:08.649Z,35.42
2023-03-13T13:54:56.842Z,35.08
2023-03-13T13:57:44.199Z,41.30
2023-03-13T14:00:55.762Z,32.80
2023-03-13T14:03:42.330Z,34.53
2023-03-13T14:06:33.087Z,28.25
2023-03-13T14:09:38.736Z,36.92
2023-03-13T14:12:35.965Z,35.35
2023-03-13T14:15:24.871Z,35.60
2023-03-13T14:18:14.940Z,37.83
2023-03-13T14:21:04.717Z,40.75
2023-03-13T14:23:49.989Z,40.60
2023-03-13T14:26:44.102Z,45.67
2023-03-13T14:29:29.920Z,31.95
2023-03-13T14:32:18.500Z,36.15
2023-03-13T14:35:09.354Z,33.17
2023-03-13T14:38:02.370Z,48.70
2023-03-13T14:40:48.778Z,36.95
2023-03-13T14:43:40.488Z,44.33
2023-03-13T14:46:39.826Z,31.92
2023-03-13T14:49:29.568Z,29.20
2023-03-13T14:52:23.850Z,37.53
2023-03-13T14:55:21.913Z,35.28
2023-03-13T14:58:30.464Z,47.10
2023-03-13T15:01:30.671Z,38.45
2023-03-13T15:04:16.345Z,40.10
2023-03-13T15:07:03.466Z,40.80
2023-03-13T15:09:50.223Z,32.92
2023-03-13T15:12:43.760Z,35.03
2023-03-13T15:15:29.412Z,37.47
2023-03-13T15:18:21.097Z,33.97
2023-03-13T15:21:17.424Z,40.22
2023-03-13T15:24:13.978Z,37.22
2023-03-13T15:26:59.807Z,37.47
2023-03-13T15:29:46.861Z,37.78
2023-03-13T15:32:40.283Z,35.08
2023-03-13T15:35:32.489Z,41.78
2023-03-13T15:38:23.664Z,36.45
2023-03-13T15:41:09.467Z,33.80
2023-03-13T15:43:57.020Z,39.17
2023-03-13T15:46:43.063Z,35.38
2023-03-13T15:49:28.536Z,32.40
2023-03-13T15:52:22.692Z,35.13
2023-03-13T15:55:10.086Z,28.08
2023-03-13T15:57:55.529Z,35.47
2023-03-13T16:00:41.100Z,39.08
2023-03-13T16:03:28.886Z,29.33
2023-03-13T16:06:18.996Z,33.22
2023-03-13T16:09:06.648Z,30.92
2023-03-13T16:11:52.084Z,27.98
2023-03-13T16:14:39.245Z,33.30
2023-03-13T16:17:28.152Z,40.35
2023-03-13T16:20:21.769Z,26.65
2023-03-13T16:23:07.773Z,31.92
2023-03-13T16:25:53.528Z,29.63
2023-03-13T16:28:39.193Z,34.03
2023-03-13T16:31:31.365Z,31.60
2023-03-13T16:34:16.989Z,34.22
2023-03-13T16:37:02.656Z,35.50
2023-03-13T16:39:50.483Z,33.72
2023-03-13T16:42:35.987Z,40.05
2023-03-13T16:45:21.806Z,34.65
2023-03-13T16:48:07.263Z,30.85
2023-03-13T16:50:52.861Z,36.42
2023-03-13T16:53:38.439Z,33.90
2023-03-13T16:56:28.918Z,24.38
2023-03-13T16:59:17.800Z,37.70
2023-03-13T17:02:03.414Z,27.33
2023-03-13T17:04:49.501Z,35.83
2023-03-13T17:07:35.277Z,28.95
2023-03-13T17:10:25.132Z,32.45
2023-03-13T17:13:10.739Z,28.05
2023-03-13T17:15:57.036Z,39.05
2023-03-13T17:18:44.337Z,28.67
2023-03-13T17:21:34.771Z,32.72
2023-03-13T17:24:20.067Z,33.95
2023-03-13T17:27:10.268Z,35.38
2023-03-13T17:29:55.934Z,38.78
2023-03-13T17:32:41.732Z,31.55
2023-03-13T17:35:27.303Z,46.97
2023-03-13T17:38:13.011Z,41.00
2023-03-13T17:40:59.673Z,35.30
2023-03-13T17:43:48.797Z,38.05
2023-03-13T17:46:41.955Z,26.38
2023-03-13T17:52:16.351Z,29.13
2023-03-13T17:55:01.514Z,37.85
2023-03-13T17:57:50.077Z,37.80
2023-03-13T18:00:45.035Z,38.53
2023-03-13T18:03:30.652Z,35.17
2023-03-13T18:06:31.681Z,31.88
2023-03-13T18:09:20.932Z,34.92
2023-03-13T18:12:08.896Z,27.75
2023-03-13T18:14:54.344Z,26.65
2023-03-13T18:17:40.524Z,25.70
2023-03-13T18:20:30.757Z,23.92
2023-03-13T18:23:16.503Z,26.63
2023-03-13T18:26:02.387Z,27.70
2023-03-13T18:28:48.234Z,35.60
2023-03-13T18:31:41.730Z,24.85
2023-03-13T18:34:28.413Z,26.48
2023-03-13T18:37:26.271Z,33.65
2023-03-13T18:40:22.024Z,38.00
2023-03-13T18:43:07.797Z,22.90
2023-03-13T18:45:53.397Z,27.98
2023-03-13T18:48:38.898Z,29.75
2023-03-13T18:51:26.280Z,29.75
2023-03-13T18:54:12.244Z,27.45
2023-03-13T18:56:57.653Z,29.73
2023-03-13T18:59:44.022Z,26.52
2023-03-13T19:02:29.566Z,29.58
2023-03-13T19:05:16.313Z,28.35
2023-03-13T19:08:01.888Z,25.73
2023-03-13T19:10:47.487Z,23.38
2023-03-13T19:13:38.325Z,22.38
2023-03-13T19:16:56.056Z,28.73
2023-03-13T19:19:41.780Z,22.83
2023-03-13T19:22:27.281Z,21.52
2023-03-13T19:25:16.330Z,22.25
2023-03-13T19:28:01.777Z,27.58
2023-03-13T19:30:47.718Z,30.23
2023-03-13T19:33:33.417Z,26.80
2023-03-13T19:36:21.071Z,31.65
2023-03-13T19:39:34.662Z,22.25
2023-03-13T19:42:20.222Z,25.67
2023-03-13T19:45:06.731Z,29.30
2023-03-13T19:47:52.471Z,23.77
2023-03-13T19:50:37.946Z,38.35
2023-03-13T19:53:23.550Z,20.23
2023-03-13T19:56:21.738Z,23.27
2023-03-13T19:59:14.223Z,23.98
2023-03-13T20:02:01.378Z,15.80
2023-03-13T20:04:47.230Z,21.95
2023-03-13T20:07:32.625Z,22.80
2023-03-13T20:10:18.276Z,20.83
2023-03-13T20:13:03.897Z,18.45
2023-03-13T20:15:49.356Z,23.75
2023-03-13T20:18:34.974Z,17.70
2023-03-13T20:21:20.434Z,23.02
2023-03-13T20:24:06.455Z,22.88
2023-03-13T20:26:52.004Z,22.30
2023-03-13T20:29:37.662Z,18.90
2023-03-13T20:32:23.229Z,22.70
2023-03-13T20:35:12.972Z,23.50
2023-03-13T20:38:00.846Z,23.60
2023-03-13T20:40:55.313Z,18.05
2023-03-13T20:43:41.163Z,21.10
2023-03-13T20:46:27.001Z,24.60
2023-03-13T20:49:12.844Z,20.83
2023-03-13T20:51:58.952Z,30.33
2023-03-13T20:54:44.731Z,29.10
2023-03-13T20:57:30.364Z,25.38
2023-03-13T21:00:16.484Z,21.80
2023-03-13T21:03:01.943Z,28.98
2023-03-13T21:05:47.478Z,18.08
2023-03-13T21:08:32.888Z,25.73
2023-03-13T21:11:21.607Z,22.77
2023-03-13T21:14:07.562Z,18.20
2023-03-13T21:16:53.369Z,21.05
2023-03-13T21:19:38.774Z,27.00
2023-03-13T21:22:27.277Z,27.23
2023-03-13T21:25:13.330Z,23.40
2023-03-13T21:27:58.692Z,21.77
2023-03-13T21:30:44.252Z,21.85
2023-03-13T21:33:29.790Z,22.50
2023-03-13T21:36:17.549Z,18.33
2023-03-13T21:39:03.117Z,27.90
2023-03-13T21:41:49.164Z,22.23
2023-03-13T21:44:35.462Z,21.38
2023-03-13T21:47:24.579Z,32.00
2023-03-13T21:50:11.059Z,22.25
2023-03-13T21:52:57.089Z,28.00
2023-03-13T21:55:42.845Z,24.75
2023-03-13T21:58:28.336Z,21.95
2023-03-13T22:01:14.976Z,27.90
2023-03-13T22:04:00.538Z,31.50
2023-03-13T22:06:46.289Z,30.08
2023-03-13T22:09:33.094Z,31.55
2023-03-13T22:12:19.053Z,25.25
2023-03-13T22:15:06.002Z,22.63
2023-03-13T22:17:51.898Z,29.35
2023-03-13T22:20:38.312Z,23.88
2023-03-13T22:23:23.918Z,23.40
2023-03-13T22:26:11.578Z,27.40
2023-03-13T22:28:56.999Z,28.95
2023-03-13T22:31:42.795Z,32.78
2023-03-13T22:34:28.563Z,29.55
2023-03-13T22:37:14.477Z,27.35
2023-03-13T22:40:00.040Z,30.90
2023-03-13T22:42:45.803Z,32.80
2023-03-13T22:45:32.270Z,32.22
2023-03-13T22:48:18.200Z,35.25
2023-03-13T22:51:12.140Z,25.52
2023-03-13T22:53:57.778Z,30.10
2023-03-13T22:56:43.254Z,28.17
2023-03-13T22:59:29.172Z,47.53
2023-03-13T23:02:14.988Z,35.80
2023-03-13T23:05:01.295Z,32.15
2023-03-13T23:07:47.223Z,35.05
2023-03-13T23:10:33.018Z,31.17
2023-03-13T23:13:19.010Z,28.27
2023-03-13T23:16:09.880Z,24.30
2023-03-13T23:18:55.238Z,28.15
2023-03-13T23:21:40.946Z,29.58
2023-03-13T23:24:26.647Z,31.15
2023-03-13T23:27:12.517Z,35.00
2023-03-13T23:29:57.962Z,45.85
2023-03-13T23:32:45.767Z,28.30
2023-03-13T23:35:31.829Z,28.42
2023-03-13T23:38:20.641Z,31.50
2023-03-13T23:41:13.429Z,26.98
2023-03-13T23:44:00.931Z,29.33
2023-03-13T23:46:46.311Z,38.88
2023-03-13T23:49:32.154Z,26.35
2023-03-13T23:52:17.851Z,37.67
2023-03-13T23:55:05.463Z,36.55
2023-03-13T23:57:51.048Z,40.70
